Open Full Screen Window  High Contrast Mode
Wind Gusting 00 knots
05
April 21, 2018 8:38 PM EDT
Weather Information
Wind Direction
  200 °
Wind Speed
  05 kt (6 mph)
Wind Gust
  00 kt (0 mph)
Altimeter
30.33 in
Visibility
10 SM
Temperature
13° C
55° F
Dewpoint
01° C
34° F
Humidity
44%
1hr Rain Fall
00.00 in.
24hr Rain Fall
00.00 in.
Sky Condition
Clear
VFR

METAR KSGS 220038Z AUTO 20005KT 10SM CLR 13/01 A3033 RMK AO2 T01250011

*Background is not an actual portrayal of the airport.